Time;durP1;ratioP1;P1;durP2;ratioP2;P2;SDS_P1;SDS_P2;PMS_P1;PMS_P2;Temp;Humidity;BMP_temperature;BMP_pressure;BME280_temperature;BME280_humidity;BME280_pressure;Samples;Min_cycle;Max_cycle;Signal;HPM_P1;HPM_P2
2022/09/25 00:01:48;;;;;;;1999.90;999.90;;;13.70;99.90;;;;;;5066421;28;20454;-68
2022/09/25 00:04:15;;;;;;;1999.90;999.90;;;13.60;99.90;;;;;;5059965;28;20479;-67
2022/09/25 00:06:43;;;;;;;1999.90;999.90;;;13.70;99.90;;;;;;5061047;28;20482;-66
2022/09/25 00:09:13;;;;;;;1999.90;999.90;;;13.60;99.90;;;;;;5066453;28;20710;-67
2022/09/25 00:11:39;;;;;;;1999.90;999.90;;;13.60;99.90;;;;;;5066310;28;20458;-66
2022/09/25 00:14:06;;;;;;;1999.90;999.90;;;13.50;99.90;;;;;;5066451;28;20483;-66
2022/09/25 00:16:33;;;;;;;1999.90;999.90;;;13.50;99.90;;;;;;5065955;28;20451;-67
2022/09/25 00:21:51;;;;;;;1999.90;999.90;;;13.50;99.90;;;;;;5042867;28;20446;-67
2022/09/25 00:24:19;;;;;;;1999.90;999.90;;;13.40;99.90;;;;;;5053589;28;20482;-65
2022/09/25 00:26:46;;;;;;;1999.90;999.90;;;13.40;99.90;;;;;;5064997;28;20490;-66
2022/09/25 00:29:16;;;;;;;1999.90;999.90;;;13.30;99.90;;;;;;5060838;28;20545;-68
2022/09/25 00:31:43;;;;;;;1999.90;999.90;;;13.30;99.90;;;;;;5067794;28;20525;-68
2022/09/25 00:34:10;;;;;;;1999.90;999.90;;;13.30;99.90;;;;;;5065025;28;20479;-66
2022/09/25 00:36:37;;;;;;;1999.90;999.90;;;13.30;99.90;;;;;;5057801;28;20444;-69
2022/09/25 00:39:05;;;;;;;1999.90;999.90;;;13.30;99.90;;;;;;5047646;28;20476;-68
2022/09/25 00:41:32;;;;;;;1999.90;999.90;;;13.20;99.90;;;;;;5047411;28;20470;-67
2022/09/25 00:44:01;;;;;;;1999.90;999.90;;;13.30;99.90;;;;;;5047344;28;20496;-68
2022/09/25 00:46:30;;;;;;;1999.90;999.90;;;13.20;99.90;;;;;;5047423;28;20476;-66
2022/09/25 00:49:02;;;;;;;1999.90;999.90;;;13.20;99.90;;;;;;5048806;28;20462;-67
2022/09/25 00:51:35;;;;;;;1999.90;999.90;;;13.20;99.90;;;;;;5049005;28;20459;-67
2022/09/25 00:54:06;;;;;;;1999.90;999.90;;;13.20;99.90;;;;;;5048943;28;20472;-66
2022/09/25 00:56:39;;;;;;;1999.90;999.90;;;13.30;99.90;;;;;;5049372;28;20866;-67
2022/09/25 00:59:09;;;;;;;1999.90;999.90;;;13.20;99.90;;;;;;5049399;28;20930;-67
2022/09/25 01:01:36;;;;;;;1999.90;999.90;;;13.20;99.90;;;;;;5048879;28;20515;-66
2022/09/25 01:04:03;;;;;;;1999.90;999.90;;;13.20;99.90;;;;;;5048816;28;20514;-66
2022/09/25 01:06:31;;;;;;;1999.90;999.90;;;13.10;99.90;;;;;;5048743;28;20486;-67
2022/09/25 01:08:59;;;;;;;1999.90;999.90;;;13.10;99.90;;;;;;5049213;28;20505;-66
2022/09/25 01:11:29;;;;;;;1999.90;999.90;;;13.00;99.90;;;;;;5049123;28;20444;-67
2022/09/25 01:13:58;;;;;;;1999.90;999.90;;;13.00;99.90;;;;;;5048749;28;21019;-66
2022/09/25 01:16:32;;;;;;;1999.90;999.90;;;13.10;99.90;;;;;;5048858;28;20562;-67
2022/09/25 01:19:11;;;;;;;1999.90;999.90;;;13.10;99.90;;;;;;5048860;28;20447;-65
2022/09/25 01:21:43;;;;;;;1999.90;999.90;;;13.20;99.90;;;;;;5049172;28;20457;-67
2022/09/25 01:24:33;;;;;;;1999.90;999.90;;;13.10;99.90;;;;;;5051367;28;20468;-66
2022/09/25 01:27:42;;;;;;;1999.90;999.90;;;13.10;99.90;;;;;;5052610;28;20485;-66
2022/09/25 01:30:15;;;;;;;1999.90;999.90;;;13.10;99.90;;;;;;5052891;28;20442;-67
2022/09/25 01:32:55;;;;;;;1999.90;999.90;;;13.20;99.90;;;;;;5052181;28;20440;-67
2022/09/25 01:35:31;;;;;;;1999.90;999.90;;;13.10;99.90;;;;;;5052290;28;20479;-66
2022/09/25 01:38:06;;;;;;;1999.90;999.90;;;13.10;99.90;;;;;;5052253;28;20443;-67
2022/09/25 01:40:35;;;;;;;1999.90;999.90;;;13.20;99.90;;;;;;5052410;28;20440;-68
2022/09/25 01:43:11;;;;;;;1999.90;999.90;;;13.20;99.90;;;;;;5052082;28;20448;-67
2022/09/25 01:45:44;;;;;;;1999.90;999.90;;;13.00;99.90;;;;;;5052420;28;20436;-67
2022/09/25 01:48:15;;;;;;;1999.90;999.90;;;13.10;99.90;;;;;;5052584;28;20439;-68
2022/09/25 01:50:47;;;;;;;1999.90;999.90;;;13.10;99.90;;;;;;5052381;28;20494;-66
2022/09/25 01:53:19;;;;;;;1999.90;999.90;;;13.20;99.90;;;;;;5051975;28;20451;-67
2022/09/25 01:55:49;;;;;;;1999.90;999.90;;;13.20;99.90;;;;;;5052276;28;20471;-66
2022/09/25 01:58:21;;;;;;;1999.90;999.90;;;13.20;99.90;;;;;;5052162;28;20452;-67
2022/09/25 02:00:54;;;;;;;1999.90;999.90;;;13.20;99.90;;;;;;5051919;28;20452;-67
2022/09/25 02:03:26;;;;;;;1999.90;999.90;;;13.30;99.90;;;;;;5051613;28;20464;-68
2022/09/25 02:05:56;;;;;;;1999.90;999.90;;;13.30;99.90;;;;;;5051686;28;20940;-66
2022/09/25 02:08:28;;;;;;;1999.90;999.90;;;13.30;99.90;;;;;;5052192;28;20462;-67
2022/09/25 02:11:01;;;;;;;1999.90;999.90;;;13.30;99.90;;;;;;5051635;28;20471;-67
2022/09/25 02:13:32;;;;;;;1999.90;999.90;;;13.30;99.90;;;;;;5051237;28;20523;-67
2022/09/25 02:16:05;;;;;;;1999.90;999.90;;;13.30;99.90;;;;;;5051427;28;20447;-67
2022/09/25 02:21:25;;;;;;;1999.90;999.90;;;13.40;99.90;;;;;;5051572;28;20846;-67
2022/09/25 02:23:56;;;;;;;1999.90;999.90;;;13.40;99.90;;;;;;5051330;28;20470;-69
2022/09/25 02:26:27;;;;;;;1999.90;999.90;;;13.50;99.90;;;;;;5051373;28;20480;-67
2022/09/25 02:28:55;;;;;;;1999.90;999.90;;;13.50;99.90;;;;;;5051434;28;20466;-68
2022/09/25 02:31:28;;;;;;;1999.90;999.90;;;13.50;99.90;;;;;;5051100;28;20448;-68
2022/09/25 02:33:55;;;;;;;1999.90;999.90;;;13.40;99.90;;;;;;5050966;28;20476;-67
2022/09/25 02:36:22;;;;;;;1999.90;999.90;;;13.30;99.90;;;;;;5050382;28;20441;-67
2022/09/25 02:38:50;;;;;;;1999.90;999.90;;;13.40;99.90;;;;;;5051429;28;21258;-67
2022/09/25 02:41:26;;;;;;;1999.90;999.90;;;13.40;99.90;;;;;;5051054;28;20444;-67
2022/09/25 02:44:02;;;;;;;1999.90;999.90;;;13.50;99.90;;;;;;5050709;28;20464;-67
2022/09/25 02:46:38;;;;;;;1999.90;999.90;;;13.50;99.90;;;;;;5050808;28;20477;-67
2022/09/25 02:49:15;;;;;;;1999.90;999.90;;;13.50;99.90;;;;;;5051022;28;20448;-67
2022/09/25 02:51:50;;;;;;;1999.90;999.90;;;13.50;99.90;;;;;;5050611;28;20451;-67
2022/09/25 02:54:22;;;;;;;1999.90;999.90;;;13.50;99.90;;;;;;5050806;28;20471;-66
2022/09/25 02:56:54;;;;;;;1999.90;999.90;;;13.50;99.90;;;;;;5050823;28;20444;-67
2022/09/25 02:59:26;;;;;;;1999.90;999.90;;;13.50;99.90;;;;;;5051058;28;20448;-68
2022/09/25 03:01:57;;;;;;;1999.90;999.90;;;13.50;99.90;;;;;;5050677;28;20451;-66
2022/09/25 03:04:26;;;;;;;1999.90;999.90;;;13.40;99.90;;;;;;5050800;28;20471;-67
2022/09/25 03:06:53;;;;;;;1999.90;999.90;;;13.50;99.90;;;;;;5050625;28;20570;-67
2022/09/25 03:09:21;;;;;;;1999.90;999.90;;;13.40;99.90;;;;;;5050459;28;20455;-66
2022/09/25 03:11:48;;;;;;;1999.90;999.90;;;13.40;99.90;;;;;;5050295;28;20507;-68
2022/09/25 03:14:15;;;;;;;1999.90;999.90;;;13.50;99.90;;;;;;5049897;28;20479;-67
2022/09/25 03:16:46;;;;;;;1999.90;999.90;;;13.40;99.90;;;;;;5050152;28;20447;-67
2022/09/25 03:19:14;;;;;;;1999.90;999.90;;;13.40;99.90;;;;;;5050449;28;20953;-67
2022/09/25 03:21:41;;;;;;;1999.90;999.90;;;13.40;99.90;;;;;;5050126;28;20451;-67
2022/09/25 03:24:09;;;;;;;1999.90;999.90;;;13.40;99.90;;;;;;5050262;28;21091;-67
2022/09/25 03:26:36;;;;;;;1999.90;999.90;;;13.40;99.90;;;;;;5050090;28;20867;-67
2022/09/25 03:29:03;;;;;;;1999.90;999.90;;;13.30;99.90;;;;;;5050203;28;20526;-65
2022/09/25 03:31:31;;;;;;;1999.90;999.90;;;13.30;99.90;;;;;;5050344;28;20455;-67
2022/09/25 03:33:58;;;;;;;1999.90;999.90;;;13.30;99.90;;;;;;5049923;28;20468;-67
2022/09/25 03:36:27;;;;;;;1999.90;999.90;;;13.30;99.90;;;;;;5050370;28;20455;-67
2022/09/25 03:38:57;;;;;;;1999.90;999.90;;;13.30;99.90;;;;;;5049878;28;20444;-67
2022/09/25 03:41:25;;;;;;;1999.90;999.90;;;13.30;99.90;;;;;;5049885;28;20455;-67
2022/09/25 03:43:53;;;;;;;1999.90;999.90;;;13.30;99.90;;;;;;5050051;28;20463;-67
2022/09/25 03:46:22;;;;;;;1999.90;999.90;;;13.30;99.90;;;;;;5049559;28;20452;-67
2022/09/25 03:48:49;;;;;;;1999.90;999.90;;;13.30;99.90;;;;;;5049678;28;20451;-67
2022/09/25 03:51:16;;;;;;;1999.90;999.90;;;13.30;99.90;;;;;;5049885;28;20455;-68
2022/09/25 03:53:44;;;;;;;1999.90;999.90;;;13.20;99.90;;;;;;5049431;28;20472;-67
2022/09/25 03:56:13;;;;;;;1999.90;999.90;;;13.20;99.90;;;;;;5050195;28;20451;-67
2022/09/25 03:58:41;;;;;;;1999.90;999.90;;;13.20;99.90;;;;;;5049912;28;20444;-67
2022/09/25 04:01:07;;;;;;;1999.90;999.90;;;13.10;99.90;;;;;;5049886;28;20452;-67
2022/09/25 04:03:34;;;;;;;1999.90;999.90;;;13.10;99.90;;;;;;5049503;28;20468;-67
2022/09/25 04:06:03;;;;;;;1999.90;999.90;;;13.10;99.90;;;;;;5049851;28;20455;-67
2022/09/25 04:08:31;;;;;;;1999.90;999.90;;;13.00;99.90;;;;;;5049592;28;20488;-67
2022/09/25 04:11:00;;;;;;;1999.90;999.90;;;13.10;99.90;;;;;;5049845;28;21230;-66
2022/09/25 04:13:29;;;;;;;1999.90;999.90;;;13.10;99.90;;;;;;5049500;28;20472;-68
2022/09/25 04:15:56;;;;;;;1999.90;999.90;;;13.10;99.90;;;;;;5050162;28;20444;-67
2022/09/25 04:18:23;;;;;;;1999.90;999.90;;;13.00;99.90;;;;;;5049895;28;20800;-67
2022/09/25 04:20:50;;;;;;;1999.90;999.90;;;13.00;99.90;;;;;;5049706;28;20448;-67
2022/09/25 04:23:17;;;;;;;1999.90;999.90;;;13.00;99.90;;;;;;5049154;28;20448;-68
2022/09/25 04:25:44;;;;;;;1999.90;999.90;;;13.00;99.90;;;;;;5049642;28;20455;-67
2022/09/25 04:28:12;;;;;;;1999.90;999.90;;;13.00;99.90;;;;;;5049536;28;20487;-67
2022/09/25 04:30:39;;;;;;;1999.90;999.90;;;13.00;99.90;;;;;;5049314;28;20451;-67
2022/09/25 04:35:50;;;;;;;1999.90;999.90;;;13.00;99.90;;;;;;5049346;28;20482;-67
2022/09/25 04:38:17;;;;;;;1999.90;999.90;;;13.00;99.90;;;;;;5049503;28;20448;-66
2022/09/25 04:40:44;;;;;;;1999.90;999.90;;;13.00;99.90;;;;;;5049039;28;20452;-68
2022/09/25 04:43:12;;;;;;;1999.90;999.90;;;13.00;99.90;;;;;;5048994;28;20456;-67
2022/09/25 04:45:39;;;;;;;1999.90;999.90;;;12.90;99.90;;;;;;5049200;28;20452;-67
2022/09/25 04:48:06;;;;;;;1999.90;999.90;;;12.80;99.90;;;;;;5049106;28;20468;-67
2022/09/25 04:50:34;;;;;;;1999.90;999.90;;;12.80;99.90;;;;;;5049338;28;20440;-66
2022/09/25 04:53:01;;;;;;;1999.90;999.90;;;12.80;99.90;;;;;;5048764;28;20480;-66
2022/09/25 04:55:28;;;;;;;1999.90;999.90;;;12.80;99.90;;;;;;5049226;28;20452;-67
2022/09/25 04:57:57;;;;;;;1999.90;999.90;;;12.80;99.90;;;;;;5049424;28;20479;-69
2022/09/25 05:00:27;;;;;;;1999.90;999.90;;;12.80;99.90;;;;;;5052960;28;20444;-67
2022/09/25 05:02:54;;;;;;;1999.90;999.90;;;12.80;99.90;;;;;;5052687;28;20451;-67
2022/09/25 05:05:21;;;;;;;1999.90;999.90;;;12.80;99.90;;;;;;5053034;28;20853;-66
2022/09/25 05:07:52;;;;;;;1999.90;999.90;;;12.70;99.90;;;;;;5052794;28;20486;-67
2022/09/25 05:10:19;;;;;;;1999.90;999.90;;;12.70;99.90;;;;;;5052952;28;20513;-66
2022/09/25 05:12:47;;;;;;;1999.90;999.90;;;12.70;99.90;;;;;;5052263;28;20501;-67
2022/09/25 05:15:14;;;;;;;1999.90;999.90;;;12.70;99.90;;;;;;5052479;28;20515;-67
2022/09/25 05:17:42;;;;;;;1999.90;999.90;;;12.70;99.90;;;;;;5052647;28;20443;-68
2022/09/25 05:20:10;;;;;;;1999.90;999.90;;;12.60;99.90;;;;;;5052776;28;20455;-68
2022/09/25 05:22:36;;;;;;;1999.90;999.90;;;12.60;99.90;;;;;;5052385;28;20832;-66
2022/09/25 05:25:03;;;;;;;1999.90;999.90;;;12.70;99.90;;;;;;5052491;28;20475;-66
2022/09/25 05:27:32;;;;;;;1999.90;999.90;;;12.70;99.90;;;;;;5052337;28;20486;-67
2022/09/25 05:29:59;;;;;;;1999.90;999.90;;;12.70;99.90;;;;;;5052633;28;20444;-67
2022/09/25 05:32:26;;;;;;;1999.90;999.90;;;12.80;99.90;;;;;;5052315;28;20440;-66
2022/09/25 05:34:54;;;;;;;1999.90;999.90;;;12.80;99.90;;;;;;5052155;28;20464;-66
2022/09/25 05:37:21;;;;;;;1999.90;999.90;;;12.80;99.90;;;;;;5052741;28;20826;-66
2022/09/25 05:39:47;;;;;;;1999.90;999.90;;;12.80;99.90;;;;;;5052529;28;20459;-68
2022/09/25 05:42:18;;;;;;;1999.90;999.90;;;12.80;99.90;;;;;;5051751;28;20629;-66
2022/09/25 05:44:45;;;;;;;1999.90;999.90;;;12.80;99.90;;;;;;5052238;28;21234;-67
2022/09/25 05:47:12;;;;;;;1999.90;999.90;;;12.80;99.90;;;;;;5052240;28;20455;-66
2022/09/25 05:49:38;;;;;;;1999.90;999.90;;;12.80;99.90;;;;;;5052259;28;20522;-65
2022/09/25 05:52:06;;;;;;;1999.90;999.90;;;12.80;99.90;;;;;;5051812;28;20451;-67
2022/09/25 05:54:33;;;;;;;1999.90;999.90;;;12.80;99.90;;;;;;5051694;28;20464;-67
2022/09/25 05:57:00;;;;;;;1999.90;999.90;;;12.80;99.90;;;;;;5051837;28;20465;-67
2022/09/25 05:59:27;;;;;;;1999.90;999.90;;;12.80;99.90;;;;;;5051962;28;20455;-67
2022/09/25 06:01:54;;;;;;;1999.90;999.90;;;12.80;99.90;;;;;;5051352;28;20456;-66
2022/09/25 06:04:20;;;;;;;1999.90;999.90;;;12.80;99.90;;;;;;5051593;28;20468;-65
2022/09/25 06:06:47;;;;;;;1999.90;999.90;;;12.90;99.90;;;;;;5051885;28;20448;-66
2022/09/25 06:09:15;;;;;;;1999.90;999.90;;;12.90;99.90;;;;;;5050848;28;20498;-68
2022/09/25 06:11:46;;;;;;;1999.90;999.90;;;12.90;99.90;;;;;;5050826;28;20942;-67
2022/09/25 06:14:13;;;;;;;1999.90;999.90;;;12.90;99.90;;;;;;5051520;28;20480;-66
2022/09/25 06:16:40;;;;;;;1999.90;999.90;;;12.80;99.90;;;;;;5051869;28;20443;-68
2022/09/25 06:19:07;;;;;;;1999.90;999.90;;;12.90;99.90;;;;;;5051963;28;20926;-66
2022/09/25 06:21:33;;;;;;;1999.90;999.90;;;12.90;99.90;;;;;;5051209;28;20968;-66
2022/09/25 06:24:01;;;;;;;1999.90;999.90;;;12.90;99.90;;;;;;5050757;28;20476;-66
2022/09/25 06:26:29;;;;;;;1999.90;999.90;;;12.90;99.90;;;;;;5051557;28;20450;-65
2022/09/25 06:28:56;;;;;;;1999.90;999.90;;;13.00;99.90;;;;;;5051464;28;20491;-66
2022/09/25 06:31:22;;;;;;;1999.90;999.90;;;13.00;99.90;;;;;;5051295;28;20462;-68
2022/09/25 06:33:50;;;;;;;1999.90;999.90;;;13.10;99.90;;;;;;5051462;28;20467;-67
2022/09/25 06:36:17;;;;;;;1999.90;999.90;;;13.10;99.90;;;;;;5051172;28;20452;-67
2022/09/25 06:38:44;;;;;;;1999.90;999.90;;;13.10;99.90;;;;;;5051216;28;20447;-67
2022/09/25 06:41:12;;;;;;;1999.90;999.90;;;13.20;99.90;;;;;;5051185;28;20930;-66
2022/09/25 06:43:40;;;;;;;1999.90;999.90;;;13.20;99.90;;;;;;5050987;28;20839;-67
2022/09/25 06:46:06;;;;;;;1999.90;999.90;;;13.30;99.90;;;;;;5051070;28;20463;-67
2022/09/25 06:48:33;;;;;;;1999.90;999.90;;;13.30;99.90;;;;;;5050824;28;20480;-67
2022/09/25 06:51:01;;;;;;;1999.90;999.90;;;13.30;99.90;;;;;;5051077;28;20819;-67
2022/09/25 06:53:27;;;;;;;1999.90;999.90;;;13.30;99.90;;;;;;5050747;28;20468;-67
2022/09/25 06:55:57;;;;;;;1999.90;999.90;;;13.40;99.90;;;;;;5050859;28;20448;-65
2022/09/25 06:58:25;;;;;;;1999.90;999.90;;;13.50;99.90;;;;;;5050876;28;20444;-66
2022/09/25 07:00:55;;;;;;;1999.90;999.90;;;13.60;99.90;;;;;;5050711;28;20448;-67
2022/09/25 07:06:09;;;;;;;1999.90;999.90;;;13.80;99.90;;;;;;5050650;28;20443;-67
2022/09/25 07:08:36;;;;;;;1999.90;999.90;;;13.80;99.90;;;;;;5050430;28;20483;-68
2022/09/25 07:11:04;;;;;;;1999.90;999.90;;;13.70;99.90;;;;;;5050504;28;20463;-68
2022/09/25 07:13:32;;;;;;;1999.90;999.90;;;13.80;99.90;;;;;;5049953;28;20476;-65
2022/09/25 07:16:02;;;;;;;1999.90;999.90;;;13.70;99.90;;;;;;5050331;28;20479;-67
2022/09/25 07:18:29;;;;;;;1999.90;999.90;;;13.70;99.90;;;;;;5050576;28;20827;-69
2022/09/25 07:21:00;;;;;;;1999.90;999.90;;;13.80;99.90;;;;;;5050132;28;20451;-70
2022/09/25 07:23:27;;;;;;;1999.90;999.90;;;13.80;99.90;;;;;;5050083;28;20474;-65
2022/09/25 07:25:54;;;;;;;1999.90;999.90;;;13.90;99.90;;;;;;5050346;28;20448;-66
2022/09/25 07:28:21;;;;;;;1999.90;999.90;;;14.00;99.90;;;;;;5050253;28;20993;-67
2022/09/25 07:30:48;;;;;;;1999.90;999.90;;;14.10;99.90;;;;;;5050036;28;20459;-65
2022/09/25 07:33:16;;;;;;;1999.90;999.90;;;14.20;99.90;;;;;;5049967;28;20501;-66
2022/09/25 07:35:43;;;;;;;1999.90;999.90;;;14.20;99.90;;;;;;5050290;28;20447;-67
2022/09/25 07:38:10;;;;;;;1999.90;999.90;;;14.30;99.90;;;;;;5049964;28;20455;-68
2022/09/25 07:40:36;;;;;;;1999.90;999.90;;;14.50;99.90;;;;;;5044757;28;20452;-69
2022/09/25 07:43:04;;;;;;;1999.90;999.90;;;14.50;99.90;;;;;;5049191;28;20440;-67
2022/09/25 07:45:31;;;;;;;1999.90;999.90;;;14.60;99.90;;;;;;5049918;28;20996;-66
2022/09/25 07:47:59;;;;;;;1999.90;999.90;;;14.80;99.90;;;;;;5049918;28;21042;-67
2022/09/25 07:50:27;;;;;;;1999.90;999.90;;;14.90;99.90;;;;;;5046724;28;20533;-68
2022/09/25 07:52:54;;;;;;;1999.90;999.90;;;15.00;99.90;;;;;;5049452;28;20444;-70
2022/09/25 07:55:22;;;;;;;1999.90;999.90;;;15.00;99.90;;;;;;5047588;28;20468;-67
2022/09/25 07:57:49;;;;;;;1999.90;999.90;;;15.10;99.90;;;;;;5049345;28;20440;-66
2022/09/25 08:00:16;;;;;;;1999.90;999.90;;;15.10;99.90;;;;;;5049263;28;20529;-67
2022/09/25 08:02:43;;;;;;;1999.90;999.90;;;15.20;99.90;;;;;;5049226;28;20459;-66
2022/09/25 08:05:10;;;;;;;1999.90;999.90;;;15.30;99.90;;;;;;5049281;28;20472;-66
2022/09/25 08:07:38;;;;;;;1999.90;999.90;;;15.50;99.90;;;;;;5049212;28;20444;-66
2022/09/25 08:10:06;;;;;;;1999.90;999.90;;;15.70;99.90;;;;;;5049037;28;20451;-66
2022/09/25 08:12:33;;;;;;;1999.90;999.90;;;15.70;99.90;;;;;;5049237;28;20444;-66
2022/09/25 08:15:00;;;;;;;1999.90;999.90;;;15.80;99.90;;;;;;5049740;28;20483;-67
2022/09/25 08:17:30;;;;;;;1999.90;999.90;;;15.90;99.90;;;;;;5049186;28;20958;-67
2022/09/25 08:19:57;;;;;;;1999.90;999.90;;;16.00;99.90;;;;;;5049466;28;20463;-67
2022/09/25 08:22:24;;;;;;;1999.90;999.90;;;16.10;99.90;;;;;;5048979;28;21020;-67
2022/09/25 08:24:52;;;;;;;1999.90;999.90;;;16.20;99.90;;;;;;5049217;28;20983;-66
2022/09/25 08:27:18;;;;;;;1999.90;999.90;;;16.30;99.90;;;;;;5049396;28;20440;-66
2022/09/25 08:29:45;;;;;;;1999.90;999.90;;;16.50;99.90;;;;;;5049322;28;20514;-67
2022/09/25 08:32:13;;;;;;;1999.90;999.90;;;16.60;99.90;;;;;;5048800;28;20451;-67
2022/09/25 08:34:41;;;;;;;1999.90;999.90;;;16.70;99.90;;;;;;5051465;28;20468;-66
2022/09/25 08:37:08;;;;;;;1999.90;999.90;;;16.70;99.90;;;;;;5052386;28;20531;-66
2022/09/25 08:39:35;;;;;;;1999.90;999.90;;;16.60;99.90;;;;;;5053177;28;20440;-67
2022/09/25 08:42:04;;;;;;;1999.90;999.90;;;16.60;99.90;;;;;;5053215;28;20458;-67
2022/09/25 08:44:36;;;;;;;1999.90;999.90;;;16.60;99.90;;;;;;5044577;28;20469;-66
2022/09/25 08:50:01;;;;;;;1999.90;999.90;;;16.40;99.90;;;;;;5044468;28;20483;-67
2022/09/25 08:52:27;;;;;;;1999.90;999.90;;;16.40;99.90;;;;;;5041272;28;20440;-67
2022/09/25 08:54:54;;;;;;;1999.90;999.90;;;16.60;99.90;;;;;;5043765;28;20474;-67
2022/09/25 08:57:30;;;;;;;1999.90;999.90;;;16.90;99.90;;;;;;5046306;28;20455;-67
2022/09/25 09:00:02;;;;;;;1999.90;999.90;;;16.60;99.90;;;;;;5043766;28;20819;-67
2022/09/25 09:02:38;;;;;;;1999.90;999.90;;;16.70;99.90;;;;;;5042502;28;20444;-66
2022/09/25 09:05:14;;;;;;;1999.90;999.90;;;16.90;99.90;;;;;;5048978;28;20499;-69
2022/09/25 09:07:44;;;;;;;1999.90;999.90;;;17.00;99.90;;;;;;5048654;28;20500;-66
2022/09/25 09:10:23;;;;;;;1999.90;999.90;;;17.10;99.90;;;;;;5043770;28;20483;-68
2022/09/25 09:12:58;;;;;;;1999.90;999.90;;;17.10;99.90;;;;;;5040528;28;20964;-66
2022/09/25 09:15:30;;;;;;;1999.90;999.90;;;16.90;99.90;;;;;;5042369;28;20463;-67
2022/09/25 09:17:59;;;;;;;1999.90;999.90;;;16.80;99.90;;;;;;5042426;28;20452;-66
2022/09/25 09:20:34;;;;;;;1999.90;999.90;;;16.70;99.90;;;;;;5042956;28;20455;-67
2022/09/25 09:23:02;;;;;;;1999.90;999.90;;;16.50;99.90;;;;;;5041250;28;20817;-65
2022/09/25 09:25:35;;;;;;;1999.90;999.90;;;16.20;99.90;;;;;;5049040;28;20519;-67
2022/09/25 09:28:17;;;;;;;1999.90;999.90;;;16.00;99.90;;;;;;5048041;28;20447;-67
2022/09/25 09:30:53;;;;;;;1999.90;999.90;;;15.90;99.90;;;;;;5045261;28;20436;-67
2022/09/25 09:33:33;;;;;;;1999.90;999.90;;;15.80;99.90;;;;;;5048759;28;20448;-67
2022/09/25 09:36:08;;;;;;;1999.90;999.90;;;15.90;99.90;;;;;;5051862;28;20447;-67
2022/09/25 09:38:46;;;;;;;1999.90;999.90;;;16.10;99.90;;;;;;5048046;28;21196;-69
2022/09/25 09:41:29;;;;;;;1999.90;999.90;;;16.10;99.90;;;;;;5039312;28;20514;-67
2022/09/25 09:44:11;;;;;;;1999.90;999.90;;;16.00;99.90;;;;;;5033030;28;20561;-67
2022/09/25 09:46:47;;;;;;;1999.90;999.90;;;15.80;99.90;;;;;;5039924;28;20539;-68
2022/09/25 09:49:18;;;;;;;1999.90;999.90;;;15.80;99.90;;;;;;5048055;28;21012;-67
2022/09/25 09:51:52;;;;;;;1999.90;999.90;;;15.70;99.90;;;;;;5046966;28;20452;-68
2022/09/25 09:54:25;;;;;;;1999.90;999.90;;;15.50;99.90;;;;;;5039666;28;20464;-68
2022/09/25 09:56:55;;;;;;;1999.90;999.90;;;15.60;99.90;;;;;;5040455;28;20449;-68
2022/09/25 09:59:28;;;;;;;1999.90;999.90;;;15.60;99.90;;;;;;5037177;28;20441;-68
2022/09/25 10:02:01;;;;;;;1999.90;999.90;;;15.80;99.90;;;;;;5043550;28;21034;-67
2022/09/25 10:04:35;;;;;;;1999.90;999.90;;;16.10;99.90;;;;;;5045132;28;20479;-68
2022/09/25 10:07:06;;;;;;;1999.90;999.90;;;16.20;99.90;;;;;;5039571;28;20468;-68
2022/09/25 10:09:34;;;;;;;1999.90;999.90;;;16.30;99.90;;;;;;5042254;28;20487;-67
2022/09/25 10:12:06;;;;;;;1999.90;999.90;;;16.20;99.90;;;;;;5049417;28;20462;-68
2022/09/25 10:14:45;;;;;;;1999.90;999.90;;;16.10;99.90;;;;;;5044369;28;20478;-67
2022/09/25 10:17:12;;;;;;;1999.90;999.90;;;15.90;99.90;;;;;;5046380;28;21141;-67
2022/09/25 10:19:49;;;;;;;1999.90;999.90;;;15.80;99.90;;;;;;5045718;28;20440;-69
2022/09/25 10:22:19;;;;;;;1999.90;999.90;;;15.90;99.90;;;;;;5043270;28;20470;-67
2022/09/25 10:24:51;;;;;;;1999.90;999.90;;;15.90;99.90;;;;;;5038067;28;20472;-67
2022/09/25 10:27:30;;;;;;;1999.90;999.90;;;16.10;99.90;;;;;;5042294;28;20498;-68
2022/09/25 10:30:12;;;;;;;1999.90;999.90;;;16.20;99.90;;;;;;5050826;28;20482;-68
2022/09/25 10:32:43;;;;;;;1999.90;999.90;;;16.40;99.90;;;;;;5049603;28;20976;-68
2022/09/25 10:35:15;;;;;;;1999.90;999.90;;;16.70;99.90;;;;;;5050595;28;20464;-68
2022/09/25 10:37:43;;;;;;;1999.90;999.90;;;17.10;99.90;;;;;;5035820;28;20445;-69
2022/09/25 10:40:24;;;;;;;1999.90;999.90;;;17.40;99.90;;;;;;5031079;28;20445;-69
2022/09/25 10:43:03;;;;;;;1999.90;999.90;;;17.20;99.90;;;;;;5030733;28;20453;-68
2022/09/25 10:45:33;;;;;;;1999.90;999.90;;;17.20;99.90;;;;;;5043921;28;20448;-68
2022/09/25 10:50:46;;;;;;;1999.90;999.90;;;16.80;99.90;;;;;;5051043;28;20550;-68
2022/09/25 10:53:28;;;;;;;1999.90;999.90;;;16.40;99.90;;;;;;5050289;28;20436;-67
2022/09/25 10:56:00;;;;;;;1999.90;999.90;;;16.10;99.90;;;;;;5050459;28;20463;-69
2022/09/25 10:58:34;;;;;;;1999.90;999.90;;;15.90;99.90;;;;;;5047925;28;20809;-68
2022/09/25 11:01:04;;;;;;;1999.90;999.90;;;15.70;99.90;;;;;;5051615;28;20451;-67
2022/09/25 11:03:34;;;;;;;1999.90;999.90;;;15.50;99.90;;;;;;5048338;28;20482;-69
2022/09/25 11:06:04;;;;;;;1999.90;999.90;;;15.40;99.90;;;;;;5047350;28;20502;-68
2022/09/25 11:08:37;;;;;;;1999.90;999.90;;;15.40;99.90;;;;;;5049625;28;20497;-70
2022/09/25 11:11:06;;;;;;;1999.90;999.90;;;15.30;99.90;;;;;;5053026;28;20543;-70
2022/09/25 11:13:40;;;;;;;1999.90;999.90;;;15.30;99.90;;;;;;5048021;28;20478;-71
2022/09/25 11:16:09;;;;;;;1999.90;999.90;;;15.20;99.90;;;;;;5046123;28;20448;-75
2022/09/25 11:18:39;;;;;;;1999.90;999.90;;;15.20;99.90;;;;;;5058558;28;20527;-71
2022/09/25 11:21:17;;;;;;;1999.90;999.90;;;15.20;99.90;;;;;;5049242;28;20448;-69
2022/09/25 11:23:58;;;;;;;1999.90;999.90;;;15.30;99.90;;;;;;5049964;28;20471;-70
2022/09/25 11:26:31;;;;;;;1999.90;999.90;;;15.40;99.90;;;;;;5056668;28;20459;-68
2022/09/25 11:29:06;;;;;;;1999.90;999.90;;;15.50;99.90;;;;;;5063343;28;20492;-69
2022/09/25 11:31:37;;;;;;;1999.90;999.90;;;15.70;99.90;;;;;;5056146;28;20439;-70
2022/09/25 11:34:15;;;;;;;1999.90;999.90;;;15.90;99.90;;;;;;5031779;28;20477;-74
2022/09/25 11:36:46;;;;;;;1999.90;999.90;;;15.90;99.90;;;;;;5045284;28;20455;-67
2022/09/25 11:42:13;;;;;;;1999.90;999.90;;;16.00;99.90;;;;;;5046808;28;20498;-67
2022/09/25 11:44:46;;;;;;;1999.90;999.90;;;16.10;99.90;;;;;;5047230;28;20901;-68
2022/09/25 11:47:20;;;;;;;1999.90;999.90;;;16.10;99.90;;;;;;5049040;28;20448;-68
2022/09/25 11:49:50;;;;;;;1999.90;999.90;;;16.30;99.90;;;;;;5046675;28;20479;-68
2022/09/25 11:52:32;;;;;;;1999.90;999.90;;;16.60;99.90;;;;;;5046596;28;21114;-68
2022/09/25 11:55:20;;;;;;;1999.90;999.90;;;16.90;99.90;;;;;;5043154;28;21068;-68
2022/09/25 11:57:56;;;;;;;1999.90;999.90;;;17.70;99.90;;;;;;5045186;28;20815;-68
2022/09/25 12:00:29;;;;;;;1999.90;999.90;;;18.40;99.90;;;;;;5044919;28;20450;-68
2022/09/25 12:03:12;;;;;;;1999.90;999.90;;;18.80;99.90;;;;;;5049159;28;20440;-67
2022/09/25 12:05:57;;;;;;;1999.90;999.90;;;19.00;99.90;;;;;;5047148;28;20542;-68
2022/09/25 12:08:37;;;;;;;1999.90;999.90;;;19.60;99.90;;;;;;5042692;28;20448;-68
2022/09/25 12:11:17;;;;;;;1999.90;999.90;;;19.60;99.90;;;;;;5049133;28;20514;-69
2022/09/25 12:13:53;;;;;;;1999.90;999.90;;;19.80;99.90;;;;;;5046227;28;20483;-68
2022/09/25 12:16:25;;;;;;;1999.90;999.90;;;19.20;99.90;;;;;;5046529;28;20454;-68
2022/09/25 12:19:03;;;;;;;1999.90;999.90;;;18.50;99.90;;;;;;5036850;28;20958;-68
2022/09/25 12:21:37;;;;;;;1999.90;999.90;;;18.20;99.90;;;;;;5034908;28;20456;-69
2022/09/25 12:24:14;;;;;;;1999.90;999.90;;;18.00;99.90;;;;;;5039960;28;20481;-68
2022/09/25 12:26:51;;;;;;;1999.90;999.90;;;17.70;99.90;;;;;;5044437;28;20909;-68
2022/09/25 12:29:33;;;;;;;1999.90;999.90;;;17.10;99.90;;;;;;5046117;28;20950;-67
2022/09/25 12:32:05;;;;;;;1999.90;999.90;;;16.80;99.90;;;;;;5047808;28;20443;-67
2022/09/25 12:34:49;;;;;;;1999.90;999.90;;;16.50;99.90;;;;;;5046774;28;20468;-67